Time;durP1;ratioP1;P1;durP2;ratioP2;P2;SDS_P1;SDS_P2;PMS_P1;PMS_P2;Temp;Humidity;BMP_temperature;BMP_pressure;BME280_temperature;BME280_humidity;BME280_pressure;Samples;Min_cycle;Max_cycle;Signal;HPM_P1;HPM_P2
2022/10/23 00:00:38;;;;;;;;;;;;;;;13.25;94.50;101359.81;5073137;28;19912;-74
2022/10/23 00:03:04;;;;;;;;;;;;;;;13.24;94.40;101358.13;5076576;28;19920;-74
2022/10/23 00:05:29;;;;;;;;;;;;;;;13.24;94.17;101362.50;5058601;28;19904;-74
2022/10/23 00:07:56;;;;;;;;;;;;;;;13.23;94.24;101355.53;5074624;28;20107;-74
2022/10/23 00:10:22;;;;;;;;;;;;;;;13.22;94.20;101362.59;5072066;28;20138;-74
2022/10/23 00:12:47;;;;;;;;;;;;;;;13.21;94.26;101362.66;5074446;28;19912;-74
2022/10/23 00:15:14;;;;;;;;;;;;;;;13.19;94.30;101365.34;5077452;28;20099;-74
2022/10/23 00:17:39;;;;;;;;;;;;;;;13.19;94.38;101369.75;5077167;28;20142;-74
2022/10/23 00:20:05;;;;;;;;;;;;;;;13.19;94.36;101359.25;5077167;28;19924;-74
2022/10/23 00:22:31;;;;;;;;;;;;;;;13.17;94.58;101354.03;5076884;28;19912;-74
2022/10/23 00:24:56;;;;;;;;;;;;;;;13.16;94.30;101357.56;5077007;28;19920;-74
2022/10/23 00:27:21;;;;;;;;;;;;;;;13.15;94.59;101353.25;5076694;28;19920;-74
2022/10/23 00:29:46;;;;;;;;;;;;;;;13.15;94.26;101349.75;5072301;28;19918;-74
2022/10/23 00:32:12;;;;;;;;;;;;;;;13.13;94.26;101360.31;5076803;28;20240;-74
2022/10/23 00:34:37;;;;;;;;;;;;;;;13.14;94.33;101353.31;5077029;28;20134;-74
2022/10/23 00:37:02;;;;;;;;;;;;;;;13.13;94.56;101359.47;5081133;28;19908;-74
2022/10/23 00:39:27;;;;;;;;;;;;;;;13.11;94.61;101356.91;5080497;28;19948;-74
2022/10/23 00:41:53;;;;;;;;;;;;;;;13.11;94.46;101362.16;5081328;28;19942;-74
2022/10/23 00:44:21;;;;;;;;;;;;;;;13.11;94.26;101350.81;5080016;28;19920;-74
2022/10/23 00:46:46;;;;;;;;;;;;;;;13.11;94.51;101358.69;5081036;28;19916;-74
2022/10/23 00:49:12;;;;;;;;;;;;;;;13.10;94.30;101354.34;5079113;28;19924;-74
2022/10/23 00:51:40;;;;;;;;;;;;;;;13.09;94.65;101348.25;5063005;28;19975;-74
2022/10/23 00:54:06;;;;;;;;;;;;;;;13.09;94.36;101348.25;5080428;28;19908;-74
2022/10/23 00:56:32;;;;;;;;;;;;;;;13.07;94.53;101339.56;5075299;28;19920;-74
2022/10/23 00:58:57;;;;;;;;;;;;;;;13.06;94.26;101346.63;5080794;28;20150;-74
2022/10/23 01:01:23;;;;;;;;;;;;;;;13.05;94.55;101344.88;5080478;28;19912;-74
2022/10/23 01:03:48;;;;;;;;;;;;;;;13.06;94.36;101340.47;5081509;28;20207;-74
2022/10/23 01:06:23;;;;;;;;;;;;;;;13.05;94.33;101350.16;5066040;28;20230;-74
2022/10/23 01:09:03;;;;;;;;;;;;;;;13.04;94.38;101340.56;5080643;28;19908;-74
2022/10/23 01:11:41;;;;;;;;;;;;;;;13.04;94.58;101331.81;5078333;28;19943;-74
2022/10/23 01:14:25;;;;;;;;;;;;;;;13.03;94.65;101338.00;5080632;28;19905;-74
2022/10/23 01:16:53;;;;;;;;;;;;;;;13.02;94.29;101329.25;5080429;28;20154;-74
2022/10/23 01:19:37;;;;;;;;;;;;;;;13.02;94.67;101334.53;5080113;28;19938;-74
2022/10/23 01:22:02;;;;;;;;;;;;;;;13.01;94.65;101330.16;5079331;28;20315;-74
2022/10/23 01:24:41;;;;;;;;;;;;;;;13.01;94.53;101330.16;5079767;28;19917;-74
2022/10/23 01:27:09;;;;;;;;;;;;;;;13.01;94.37;101324.06;5080180;28;19916;-74
2022/10/23 01:29:36;;;;;;;;;;;;;;;13.01;94.77;101330.16;5079168;28;19912;-74
2022/10/23 01:32:05;;;;;;;;;;;;;;;13.01;94.62;101322.28;5080203;28;20173;-74
2022/10/23 01:34:36;;;;;;;;;;;;;;;13.00;94.50;101328.44;5079677;28;19904;-74
2022/10/23 01:37:03;;;;;;;;;;;;;;;13.00;94.48;101320.56;5080281;28;19958;-74
2022/10/23 01:39:32;;;;;;;;;;;;;;;13.00;94.62;101319.72;5061586;28;19916;-74
2022/10/23 01:42:14;;;;;;;;;;;;;;;13.00;94.64;101312.69;5079992;28;20235;-74
2022/10/23 01:44:48;;;;;;;;;;;;;;;12.98;94.58;101314.53;5079775;28;20131;-74
2022/10/23 01:47:16;;;;;;;;;;;;;;;12.98;94.56;101301.38;5078639;28;19985;-74
2022/10/23 01:49:42;;;;;;;;;;;;;;;12.98;94.53;101297.91;5079654;28;20219;-74
2022/10/23 01:52:10;;;;;;;;;;;;;;;12.97;94.58;101299.69;5079686;28;20219;-74
2022/10/23 01:54:38;;;;;;;;;;;;;;;12.97;94.64;101290.91;5079383;28;19904;-75
2022/10/23 01:57:06;;;;;;;;;;;;;;;12.96;94.58;101289.22;5074604;28;20138;-74
2022/10/23 01:59:34;;;;;;;;;;;;;;;12.95;94.58;101282.25;5079325;28;19912;-74
2022/10/23 02:06:55;;;;;;;;;;;;;;;12.94;94.72;101286.66;5018979;28;19987;-74
2022/10/23 02:09:20;;;;;;;;;;;;;;;12.93;94.89;101279.69;5019944;28;20225;-76
2022/10/23 02:11:58;;;;;;;;;;;;;;;12.94;94.81;101277.94;5023467;28;19951;-76
2022/10/23 02:14:36;;;;;;;;;;;;;;;12.93;94.91;101279.69;5019340;28;20223;-76
2022/10/23 02:17:14;;;;;;;;;;;;;;;12.92;94.67;101285.88;5019385;28;19948;-76
2022/10/23 02:19:44;;;;;;;;;;;;;;;12.93;94.79;101284.09;5019293;28;19955;-76
2022/10/23 02:22:13;;;;;;;;;;;;;;;12.93;94.89;101282.31;5019609;28;19936;-76
2022/10/23 02:24:43;;;;;;;;;;;;;;;12.92;94.88;101282.41;5019339;28;19909;-76
2022/10/23 02:27:14;;;;;;;;;;;;;;;12.91;94.83;101285.94;5019502;28;20028;-75
2022/10/23 02:29:43;;;;;;;;;;;;;;;12.92;94.55;101285.03;5018745;28;20208;-76
2022/10/23 02:32:09;;;;;;;;;;;;;;;12.90;94.75;101274.59;5019168;28;19921;-76
2022/10/23 02:34:34;;;;;;;;;;;;;;;12.89;94.93;101270.22;4984798;28;20000;-76
2022/10/23 02:36:59;;;;;;;;;;;;;;;12.89;94.79;101267.59;5019252;28;19922;-75
2022/10/23 02:39:26;;;;;;;;;;;;;;;12.89;94.73;101261.50;5027892;28;19914;-75
2022/10/23 02:41:51;;;;;;;;;;;;;;;12.88;94.79;101258.03;5034161;28;19940;-75
2022/10/23 02:44:19;;;;;;;;;;;;;;;12.89;94.94;101251.81;5027959;28;19948;-73
2022/10/23 02:46:50;;;;;;;;;;;;;;;12.88;94.81;101250.13;5034295;28;19917;-76
2022/10/23 02:49:19;;;;;;;;;;;;;;;12.87;94.95;101241.38;5017917;28;19987;-75
2022/10/23 02:51:57;;;;;;;;;;;;;;;12.86;94.62;101242.31;5030872;28;19917;-75
2022/10/23 02:54:29;;;;;;;;;;;;;;;12.85;94.92;101235.34;5008024;28;19914;-76
2022/10/23 02:57:20;;;;;;;;;;;;;;;12.86;94.86;101230.91;5000819;28;20115;-76
2022/10/23 02:59:50;;;;;;;;;;;;;;;12.85;95.32;101214.31;4994649;28;19917;-76
2022/10/23 03:02:24;;;;;;;;;;;;;;;12.86;95.55;101212.53;5018486;28;19919;-75
2022/10/23 03:04:51;;;;;;;;;;;;;;;12.84;95.44;101202.09;5018350;28;19922;-75
2022/10/23 03:07:17;;;;;;;;;;;;;;;12.84;95.44;101207.38;5018811;28;19983;-76
2022/10/23 03:09:43;;;;;;;;;;;;;;;12.83;95.49;101203.00;5018434;28;19909;-75
2022/10/23 03:12:08;;;;;;;;;;;;;;;12.83;95.82;101197.75;5018983;28;19925;-75
2022/10/23 03:14:33;;;;;;;;;;;;;;;12.83;95.77;101205.63;5004165;28;20239;-75
2022/10/23 03:16:58;;;;;;;;;;;;;;;12.82;95.87;101201.31;5014036;28;19952;-75
2022/10/23 03:19:24;;;;;;;;;;;;;;;12.81;95.67;101196.97;5001639;28;19964;-76
2022/10/23 03:21:49;;;;;;;;;;;;;;;12.81;95.78;101194.34;4999689;28;20000;-75
2022/10/23 03:24:14;;;;;;;;;;;;;;;12.80;95.77;101187.38;5000452;28;19920;-75
2022/10/23 03:26:40;;;;;;;;;;;;;;;12.81;95.58;101190.88;5018085;28;19925;-75
2022/10/23 03:29:05;;;;;;;;;;;;;;;12.80;95.78;101197.03;5000222;28;19913;-76
2022/10/23 03:31:30;;;;;;;;;;;;;;;12.81;95.55;101193.50;5016191;28;19917;-75
2022/10/23 03:33:55;;;;;;;;;;;;;;;12.80;95.74;101186.53;5018452;28;19948;-76
2022/10/23 03:36:20;;;;;;;;;;;;;;;12.79;95.82;101190.94;5017631;28;19922;-75
2022/10/23 03:38:46;;;;;;;;;;;;;;;12.79;95.66;101177.78;5029040;28;19988;-76
2022/10/23 03:41:11;;;;;;;;;;;;;;;12.79;95.42;101171.69;4982216;28;20112;-75
2022/10/23 03:43:36;;;;;;;;;;;;;;;12.78;95.42;101167.34;4998175;28;20212;-76
2022/10/23 03:46:07;;;;;;;;;;;;;;;12.76;95.40;101151.66;5009206;28;19921;-76
2022/10/23 03:48:33;;;;;;;;;;;;;;;12.76;95.65;101156.06;5017775;28;20132;-75
2022/10/23 03:50:58;;;;;;;;;;;;;;;12.74;95.55;101153.50;5007888;28;19989;-76
2022/10/23 03:53:23;;;;;;;;;;;;;;;12.73;95.70;101150.94;4998289;28;19913;-76
2022/10/23 03:55:48;;;;;;;;;;;;;;;12.73;95.73;101148.28;4998977;28;20102;-76
2022/10/23 03:58:14;;;;;;;;;;;;;;;12.70;95.98;101149.31;4997093;28;20243;-76
2022/10/23 04:00:39;;;;;;;;;;;;;;;12.70;96.24;101141.41;4983906;28;19909;-76
2022/10/23 04:03:04;;;;;;;;;;;;;;;12.69;96.01;101150.22;5016827;28;19937;-76
2022/10/23 04:05:29;;;;;;;;;;;;;;;12.69;95.99;101139.69;5015662;28;20167;-75
2022/10/23 04:07:55;;;;;;;;;;;;;;;12.70;96.00;101140.53;5017800;28;20112;-76
2022/10/23 04:10:21;;;;;;;;;;;;;;;12.69;96.09;101144.97;4999438;28;19913;-76
2022/10/23 04:12:46;;;;;;;;;;;;;;;12.69;96.00;101134.44;5017505;28;19921;-76
2022/10/23 04:15:11;;;;;;;;;;;;;;;12.69;95.88;101131.81;5017169;28;20271;-75
2022/10/23 04:17:36;;;;;;;;;;;;;;;12.69;96.09;101129.19;4999557;28;19927;-75
2022/10/23 04:20:02;;;;;;;;;;;;;;;12.68;96.01;101117.84;4999990;28;20226;-76
2022/10/23 04:22:27;;;;;;;;;;;;;;;12.69;95.77;101108.16;5016962;28;19996;-76
2022/10/23 04:24:52;;;;;;;;;;;;;;;12.69;95.64;101105.53;5017928;28;19929;-76
2022/10/23 04:27:18;;;;;;;;;;;;;;;12.67;95.87;101100.34;5013000;28;19987;-76
2022/10/23 04:29:43;;;;;;;;;;;;;;;12.66;95.72;101106.53;5017577;28;19988;-76
2022/10/23 04:32:08;;;;;;;;;;;;;;;12.66;95.78;101103.03;5020247;28;20152;-76
2022/10/23 04:34:34;;;;;;;;;;;;;;;12.66;95.98;101101.28;5015385;28;20329;-75
2022/10/23 04:36:59;;;;;;;;;;;;;;;12.65;96.15;101099.56;5017848;28;19921;-76
2022/10/23 04:39:24;;;;;;;;;;;;;;;12.63;95.99;101098.78;5017054;28;19941;-76
2022/10/23 04:41:50;;;;;;;;;;;;;;;12.63;96.32;101101.41;5016615;28;20032;-76
2022/10/23 04:44:15;;;;;;;;;;;;;;;12.63;96.20;101108.44;5015986;28;19910;-75
2022/10/23 04:46:40;;;;;;;;;;;;;;;12.63;96.26;101106.66;4999382;28;19956;-75
2022/10/23 04:49:05;;;;;;;;;;;;;;;12.63;96.09;101108.44;4996607;28;19925;-76
2022/10/23 04:51:31;;;;;;;;;;;;;;;12.63;96.16;101101.41;4997274;28;19914;-75
2022/10/23 04:53:56;;;;;;;;;;;;;;;12.63;96.15;101103.19;4996919;28;19928;-75
2022/10/23 04:56:21;;;;;;;;;;;;;;;12.63;96.34;101104.03;5015453;28;19948;-75
2022/10/23 04:58:47;;;;;;;;;;;;;;;12.63;96.51;101097.94;5001396;28;19917;-75
2022/10/23 05:01:12;;;;;;;;;;;;;;;12.62;96.95;101096.22;4995970;28;19998;-76
2022/10/23 05:03:37;;;;;;;;;;;;;;;12.61;97.31;101095.38;4991300;28;20333;-76
2022/10/23 05:06:03;;;;;;;;;;;;;;;12.60;97.21;101096.28;5017189;28;19932;-76
2022/10/23 05:08:29;;;;;;;;;;;;;;;12.61;97.20;101084.03;5016414;28;20000;-75
2022/10/23 05:10:54;;;;;;;;;;;;;;;12.60;97.55;101074.44;4999519;28;19971;-76
2022/10/23 05:13:19;;;;;;;;;;;;;;;12.59;97.67;101089.34;4998959;28;20023;-76
2022/10/23 05:15:46;;;;;;;;;;;;;;;12.59;97.71;101094.59;5017306;28;19913;-76
2022/10/23 05:18:14;;;;;;;;;;;;;;;12.59;97.80;101093.75;5015948;28;19921;-76
2022/10/23 05:20:40;;;;;;;;;;;;;;;12.59;97.60;101097.22;5016545;28;20176;-76
2022/10/23 05:23:07;;;;;;;;;;;;;;;12.59;97.84;101089.34;5019562;28;19916;-76
2022/10/23 05:25:33;;;;;;;;;;;;;;;12.60;97.86;101095.44;4983004;28;20125;-76
2022/10/23 05:27:58;;;;;;;;;;;;;;;12.60;97.81;101079.69;4983792;28;19917;-76
2022/10/23 05:30:23;;;;;;;;;;;;;;;12.60;97.77;101084.94;5017363;28;19964;-75
2022/10/23 05:32:48;;;;;;;;;;;;;;;12.60;97.81;101087.56;5020439;28;19920;-75
2022/10/23 05:35:20;;;;;;;;;;;;;;;12.60;97.36;101091.03;5014411;28;19928;-75
2022/10/23 05:37:46;;;;;;;;;;;;;;;12.62;97.37;101096.22;5019035;28;19909;-76
2022/10/23 05:40:12;;;;;;;;;;;;;;;12.63;97.15;101097.94;5002730;28;19955;-75
2022/10/23 05:42:37;;;;;;;;;;;;;;;12.63;97.44;101088.28;5002520;28;20294;-76
2022/10/23 05:45:02;;;;;;;;;;;;;;;12.63;97.13;101087.44;5002615;28;19924;-76
2022/10/23 05:47:28;;;;;;;;;;;;;;;12.64;97.16;101083.88;5019317;28;20044;-76
2022/10/23 05:49:53;;;;;;;;;;;;;;;12.64;97.06;101074.22;5002683;28;19921;-75
2022/10/23 05:52:19;;;;;;;;;;;;;;;12.64;96.93;101076.84;5002723;28;19924;-75
2022/10/23 05:54:44;;;;;;;;;;;;;;;12.64;97.09;101068.97;5019602;28;20259;-76
2022/10/23 05:57:09;;;;;;;;;;;;;;;12.65;97.52;101067.19;5002602;28;19917;-75
2022/10/23 05:59:35;;;;;;;;;;;;;;;12.64;97.48;101066.34;5001756;28;19929;-75
2022/10/23 06:02:00;;;;;;;;;;;;;;;12.63;97.58;101059.38;5018841;28;19917;-75
2022/10/23 06:04:25;;;;;;;;;;;;;;;12.63;97.88;101051.50;5001540;28;19968;-75
2022/10/23 06:06:51;;;;;;;;;;;;;;;12.63;97.89;101046.25;5001973;28;19951;-75
2022/10/23 06:09:16;;;;;;;;;;;;;;;12.63;97.60;101059.38;5010757;28;19967;-75
2022/10/23 06:11:41;;;;;;;;;;;;;;;12.63;97.97;101048.03;5019399;28;19922;-75
2022/10/23 06:14:07;;;;;;;;;;;;;;;12.64;97.63;101047.09;5019828;28;19921;-75
2022/10/23 06:16:32;;;;;;;;;;;;;;;12.65;97.65;101043.53;5018937;28;20122;-75
2022/10/23 06:18:59;;;;;;;;;;;;;;;12.64;97.75;101039.19;5002078;28;19921;-75
2022/10/23 06:21:24;;;;;;;;;;;;;;;12.65;97.65;101033.03;5001083;28;19917;-75
2022/10/23 06:23:50;;;;;;;;;;;;;;;12.64;97.58;101031.31;5001796;28;19940;-75
2022/10/23 06:26:16;;;;;;;;;;;;;;;12.66;97.92;101039.97;5001411;28;19953;-75
2022/10/23 06:28:41;;;;;;;;;;;;;;;12.65;97.59;101025.16;5019053;28;19924;-75
2022/10/23 06:31:07;;;;;;;;;;;;;;;12.64;97.94;101024.31;5017893;28;19937;-75
2022/10/23 06:33:33;;;;;;;;;;;;;;;12.64;97.93;101015.56;5019107;28;19913;-75
2022/10/23 06:35:58;;;;;;;;;;;;;;;12.65;97.82;101017.28;5001385;28;19972;-75
2022/10/23 06:38:24;;;;;;;;;;;;;;;12.64;97.87;101016.44;5018911;28;20004;-75
2022/10/23 06:40:53;;;;;;;;;;;;;;;12.65;98.05;101015.50;5000925;28;19921;-75
2022/10/23 06:43:18;;;;;;;;;;;;;;;12.65;97.81;100999.72;5014913;28;19979;-75
2022/10/23 06:45:43;;;;;;;;;;;;;;;12.65;97.93;101002.34;5019826;28;19921;-75
2022/10/23 06:48:09;;;;;;;;;;;;;;;12.66;97.96;101005.81;4998310;28;19921;-75
2022/10/23 06:50:35;;;;;;;;;;;;;;;12.65;98.29;101004.13;4996059;28;20096;-75
2022/10/23 06:53:01;;;;;;;;;;;;;;;12.64;98.54;101005.03;4999004;28;20152;-75
2022/10/23 06:55:26;;;;;;;;;;;;;;;12.64;98.36;101013.81;5003914;28;19925;-75
2022/10/23 06:57:52;;;;;;;;;;;;;;;12.64;98.65;101010.28;4998977;28;20112;-75
2022/10/23 07:00:17;;;;;;;;;;;;;;;12.64;98.87;101016.44;5014447;28;20111;-75
2022/10/23 07:02:42;;;;;;;;;;;;;;;12.65;98.96;101006.75;5018210;28;19925;-75
2022/10/23 07:05:08;;;;;;;;;;;;;;;12.65;98.62;100996.25;5013891;28;20008;-75
2022/10/23 07:07:33;;;;;;;;;;;;;;;12.65;98.52;100986.59;4996982;28;19926;-75
2022/10/23 07:09:58;;;;;;;;;;;;;;;12.66;98.85;100974.28;4982081;28;19968;-75
2022/10/23 07:12:24;;;;;;;;;;;;;;;12.65;98.61;100978.69;4979770;28;19917;-75
2022/10/23 07:14:49;;;;;;;;;;;;;;;12.65;99.44;100978.69;5013077;28;20150;-75
2022/10/23 07:17:14;;;;;;;;;;;;;;;12.64;99.84;100990.16;5015370;28;20266;-75
2022/10/23 07:19:40;;;;;;;;;;;;;;;12.64;99.83;100991.91;5012628;28;19909;-75
2022/10/23 07:22:05;;;;;;;;;;;;;;;12.63;99.92;100996.31;5014649;28;20115;-75
2022/10/23 07:24:35;;;;;;;;;;;;;;;12.63;100.00;101000.72;5006276;28;19948;-75
2022/10/23 07:27:01;;;;;;;;;;;;;;;12.63;100.00;100996.31;4993438;28;19921;-75
2022/10/23 07:29:26;;;;;;;;;;;;;;;12.62;100.00;100981.47;5012722;28;19917;-75
2022/10/23 07:31:51;;;;;;;;;;;;;;;12.64;100.00;100979.66;5010790;28;20092;-75
2022/10/23 07:34:17;;;;;;;;;;;;;;;12.64;100.00;100984.03;4996600;28;19928;-75
2022/10/23 07:36:42;;;;;;;;;;;;;;;12.65;100.00;100980.47;5017814;28;19932;-75
2022/10/23 07:39:07;;;;;;;;;;;;;;;12.65;100.00;100976.06;4976196;28;19945;-75
2022/10/23 07:41:33;;;;;;;;;;;;;;;12.66;100.00;100976.91;5010027;28;19925;-75
2022/10/23 07:43:58;;;;;;;;;;;;;;;12.66;100.00;100974.28;5018093;28;20212;-75
2022/10/23 07:46:23;;;;;;;;;;;;;;;12.67;100.00;100970.75;5027375;28;19921;-75
2022/10/23 07:48:49;;;;;;;;;;;;;;;12.67;100.00;100965.50;4976125;28;20282;-75
2022/10/23 07:51:14;;;;;;;;;;;;;;;12.68;100.00;100972.47;4990627;28;19953;-75
2022/10/23 07:53:40;;;;;;;;;;;;;;;12.67;100.00;100961.09;4989384;28;19969;-75
2022/10/23 07:56:37;;;;;;;;;;;;;;;12.69;100.00;100968.91;5008512;28;20254;-75
2022/10/23 07:59:03;;;;;;;;;;;;;;;12.70;100.00;100960.09;4974783;28;20227;-75
2022/10/23 08:01:33;;;;;;;;;;;;;;;12.70;100.00;100959.22;5010249;28;19944;-75
2022/10/23 08:03:59;;;;;;;;;;;;;;;12.71;100.00;100960.94;4997243;28;20246;-75
2022/10/23 08:06:24;;;;;;;;;;;;;;;12.72;100.00;100966.13;5005959;28;19925;-75
2022/10/23 08:08:49;;;;;;;;;;;;;;;12.73;100.00;100961.72;5013605;28;19931;-75
2022/10/23 08:11:17;;;;;;;;;;;;;;;12.73;100.00;100961.72;5014348;28;19920;-74
2022/10/23 08:13:43;;;;;;;;;;;;;;;12.74;100.00;100958.19;5014752;28;20203;-75
2022/10/23 08:16:08;;;;;;;;;;;;;;;12.75;100.00;100949.34;5014829;28;19917;-75
2022/10/23 08:18:33;;;;;;;;;;;;;;;12.75;100.00;100942.34;5014462;28;19924;-75
2022/10/23 08:21:00;;;;;;;;;;;;;;;12.75;100.00;100934.47;4997091;28;19921;-75
2022/10/23 08:23:26;;;;;;;;;;;;;;;12.75;100.00;100926.56;5002004;28;20356;-75
2022/10/23 08:25:55;;;;;;;;;;;;;;;12.76;100.00;100928.25;5016612;28;19931;-75
2022/10/23 08:28:21;;;;;;;;;;;;;;;12.77;100.00;100927.34;5013986;28;19913;-75
2022/10/23 08:30:46;;;;;;;;;;;;;;;12.77;100.00;100924.72;5013932;28;19932;-75
2022/10/23 08:33:11;;;;;;;;;;;;;;;12.79;100.00;100920.25;5017075;28;19921;-75
2022/10/23 08:35:37;;;;;;;;;;;;;;;12.80;100.00;100915.81;5014388;28;20215;-75
2022/10/23 08:38:02;;;;;;;;;;;;;;;12.79;100.00;100911.53;4991211;28;19952;-75
2022/10/23 08:40:28;;;;;;;;;;;;;;;12.81;100.00;100918.38;5011032;28;19921;-75
2022/10/23 08:42:59;;;;;;;;;;;;;;;12.82;100.00;100921.84;4992015;28;20617;-75
2022/10/23 08:45:37;;;;;;;;;;;;;;;12.82;100.00;100912.22;5009869;28;20128;-75
2022/10/23 08:48:21;;;;;;;;;;;;;;;12.84;100.00;100915.63;5008607;28;19962;-75
2022/10/23 08:50:49;;;;;;;;;;;;;;;12.84;100.00;100907.72;5008498;28;19922;-75
2022/10/23 08:53:21;;;;;;;;;;;;;;;12.86;100.00;100908.50;5004377;28;20117;-75
2022/10/23 08:55:54;;;;;;;;;;;;;;;12.86;100.00;100908.50;5014629;28;19917;-75
2022/10/23 08:58:28;;;;;;;;;;;;;;;12.89;100.00;100907.50;5012471;28;20112;-75
2022/10/23 09:00:53;;;;;;;;;;;;;;;12.90;100.00;100908.34;5018421;28;19952;-75
2022/10/23 09:03:19;;;;;;;;;;;;;;;12.91;100.00;100907.41;4999954;28;19918;-75
2022/10/23 09:06:00;;;;;;;;;;;;;;;12.93;100.00;100909.03;5017232;28;19921;-75
2022/10/23 09:08:28;;;;;;;;;;;;;;;12.94;100.00;100899.41;5017776;28;19995;-75
2022/10/23 09:11:10;;;;;;;;;;;;;;;12.95;100.00;100899.31;5019455;28;20154;-75
2022/10/23 09:13:35;;;;;;;;;;;;;;;12.96;100.00;100884.38;5000088;28;19917;-75
2022/10/23 09:16:19;;;;;;;;;;;;;;;12.98;100.00;100882.53;5000539;28;19985;-75
2022/10/23 09:18:46;;;;;;;;;;;;;;;13.00;100.00;100880.66;5016516;28;19963;-75
2022/10/23 09:21:11;;;;;;;;;;;;;;;13.00;100.00;100878.88;5016257;28;19925;-75
2022/10/23 09:23:37;;;;;;;;;;;;;;;13.02;100.00;100876.19;5016273;28;19917;-75
2022/10/23 09:26:09;;;;;;;;;;;;;;;13.04;100.00;100871.69;5017516;28;19905;-75
2022/10/23 09:28:39;;;;;;;;;;;;;;;13.05;100.00;100861.09;5017372;28;19953;-75
2022/10/23 09:31:05;;;;;;;;;;;;;;;13.06;100.00;100865.44;4999509;28;20182;-75
2022/10/23 09:33:33;;;;;;;;;;;;;;;13.07;100.00;100854.00;4996185;28;20220;-75
2022/10/23 09:36:03;;;;;;;;;;;;;;;13.09;100.00;100858.34;5015215;28;19917;-75
2022/10/23 09:38:29;;;;;;;;;;;;;;;13.09;100.00;100846.03;5017223;28;19917;-75
2022/10/23 09:40:54;;;;;;;;;;;;;;;13.11;100.00;100846.78;5016233;28;19970;-75
2022/10/23 09:43:26;;;;;;;;;;;;;;;13.13;100.00;100846.72;5017724;28;20040;-75
2022/10/23 09:45:55;;;;;;;;;;;;;;;13.13;100.00;100839.69;5000154;28;20427;-75
2022/10/23 09:48:21;;;;;;;;;;;;;;;13.15;100.00;100829.09;5016230;28;20183;-75
2022/10/23 09:50:53;;;;;;;;;;;;;;;13.16;100.00;100828.16;5017797;28;20278;-75
2022/10/23 09:53:25;;;;;;;;;;;;;;;13.16;100.00;100842.16;4998425;28;19978;-75
2022/10/23 09:55:54;;;;;;;;;;;;;;;13.18;100.00;100845.56;5017097;28;20234;-75
2022/10/23 09:58:40;;;;;;;;;;;;;;;13.19;100.00;100830.66;5016894;28;19941;-75
2022/10/23 10:01:05;;;;;;;;;;;;;;;13.20;100.00;100814.75;4999282;28;19955;-75
2022/10/23 10:03:31;;;;;;;;;;;;;;;13.22;100.00;100831.34;5025049;28;19921;-75
2022/10/23 10:06:00;;;;;;;;;;;;;;;13.23;100.00;100819.03;5016402;28;19921;-75
2022/10/23 10:08:34;;;;;;;;;;;;;;;13.23;100.00;100817.25;5016301;28;19952;-75
2022/10/23 10:11:00;;;;;;;;;;;;;;;13.25;100.00;100804.88;5016572;28;20186;-75
2022/10/23 10:13:31;;;;;;;;;;;;;;;13.27;100.00;100809.22;5016375;28;19917;-75
2022/10/23 10:15:58;;;;;;;;;;;;;;;13.28;100.00;100806.50;5015487;28;19921;-75
2022/10/23 10:18:39;;;;;;;;;;;;;;;13.30;100.00;100806.38;5016506;28;20093;-75
2022/10/23 10:21:09;;;;;;;;;;;;;;;13.31;100.00;100800.25;5006709;28;19982;-75
2022/10/23 10:23:35;;;;;;;;;;;;;;;13.32;100.00;100801.97;4998444;28;19917;-75
2022/10/23 10:26:06;;;;;;;;;;;;;;;13.35;100.00;100791.25;5015824;28;19923;-75
2022/10/23 10:28:50;;;;;;;;;;;;;;;13.36;100.00;100774.56;5016425;28;20289;-75
2022/10/23 10:31:22;;;;;;;;;;;;;;;13.38;100.00;100762.16;5019959;28;19947;-75
2022/10/23 10:33:56;;;;;;;;;;;;;;;13.40;100.00;100757.66;4998553;28;20201;-75
2022/10/23 10:36:45;;;;;;;;;;;;;;;13.42;100.00;100750.53;5014900;28;19913;-75
2022/10/23 10:39:16;;;;;;;;;;;;;;;13.43;100.00;100739.94;5016579;28;19960;-75
2022/10/23 10:41:42;;;;;;;;;;;;;;;13.46;100.00;100731.03;5016471;28;19918;-75
2022/10/23 10:44:25;;;;;;;;;;;;;;;13.49;100.00;100724.75;5016583;28;19925;-75
2022/10/23 10:46:58;;;;;;;;;;;;;;;13.51;100.00;100720.25;5014980;28;19917;-75
2022/10/23 10:49:39;;;;;;;;;;;;;;;13.53;100.00;100721.03;4998903;28;19925;-75
2022/10/23 10:52:10;;;;;;;;;;;;;;;13.55;100.00;100717.41;5015048;28;20266;-75
2022/10/23 10:54:56;;;;;;;;;;;;;;;13.57;100.00;100693.59;5015446;28;19918;-75
2022/10/23 10:57:31;;;;;;;;;;;;;;;13.59;100.00;100689.13;4998375;28;20216;-75
2022/10/23 10:59:58;;;;;;;;;;;;;;;13.61;100.00;100695.16;4998628;28;19917;-75
2022/10/23 11:02:37;;;;;;;;;;;;;;;13.65;100.00;100695.84;4998680;28;19913;-75
2022/10/23 11:05:13;;;;;;;;;;;;;;;13.67;100.00;100700.06;5015905;28;19924;-75
2022/10/23 11:07:44;;;;;;;;;;;;;;;13.70;100.00;100701.66;4998160;28;19921;-75
2022/10/23 11:10:15;;;;;;;;;;;;;;;13.71;100.00;100675.25;5015705;28;19921;-75
2022/10/23 11:12:41;;;;;;;;;;;;;;;13.75;100.00;100681.19;5016057;28;20135;-75
2022/10/23 11:15:14;;;;;;;;;;;;;;;13.79;100.00;100669.59;4996800;28;20200;-75
2022/10/23 11:17:43;;;;;;;;;;;;;;;13.82;100.00;100661.50;4999515;28;19913;-75
2022/10/23 11:20:26;;;;;;;;;;;;;;;13.85;100.00;100653.44;5015888;28;20146;-75
2022/10/23 11:23:08;;;;;;;;;;;;;;;13.89;100.00;100641.78;5016359;28;19980;-75
2022/10/23 11:25:57;;;;;;;;;;;;;;;13.93;100.00;100639.81;5010622;28;19952;-75
2022/10/23 11:28:41;;;;;;;;;;;;;;;13.97;100.00;100652.75;5008284;28;19933;-75
2022/10/23 11:31:25;;;;;;;;;;;;;;;14.01;100.00;100637.63;5010323;28;20171;-75
2022/10/23 11:34:01;;;;;;;;;;;;;;;14.06;100.00;100637.31;5006952;28;19921;-75
2022/10/23 11:36:47;;;;;;;;;;;;;;;14.10;100.00;100633.56;5009358;28;20238;-75
2022/10/23 11:39:16;;;;;;;;;;;;;;;14.14;100.00;100627.22;4988703;28;20098;-75
2022/10/23 11:41:47;;;;;;;;;;;;;;;14.16;100.00;100626.16;5005891;28;19917;-75
2022/10/23 11:44:27;;;;;;;;;;;;;;;14.18;100.00;100621.66;4995742;28;20176;-75
2022/10/23 11:47:03;;;;;;;;;;;;;;;14.22;100.00;100630.22;5008678;28;19921;-75
2022/10/23 11:49:28;;;;;;;;;;;;;;;14.25;100.00;100629.22;5008995;28;20111;-75
2022/10/23 11:52:00;;;;;;;;;;;;;;;14.28;100.00;100626.38;5014351;28;19946;-75
2022/10/23 11:54:26;;;;;;;;;;;;;;;14.29;100.00;100615.75;5007678;28;19913;-75
2022/10/23 11:57:03;;;;;;;;;;;;;;;14.32;100.00;100604.19;5014098;28;19929;-76
2022/10/23 11:59:30;;;;;;;;;;;;;;;14.34;100.00;100600.53;5010070;28;20215;-75
2022/10/23 12:01:57;;;;;;;;;;;;;;;14.37;100.00;100607.38;5006931;28;19925;-75
2022/10/23 12:04:29;;;;;;;;;;;;;;;14.39;100.00;100610.78;5013130;28;19935;-75
2022/10/23 12:06:56;;;;;;;;;;;;;;;14.40;100.00;100594.03;5011070;28;19952;-75
2022/10/23 12:09:35;;;;;;;;;;;;;;;14.43;100.00;100587.75;5006449;28;19987;-75
2022/10/23 12:12:20;;;;;;;;;;;;;;;14.46;100.00;100587.53;5002748;28;19963;-75
2022/10/23 12:14:49;;;;;;;;;;;;;;;14.48;100.00;100585.66;4997561;28;19924;-75
2022/10/23 12:17:20;;;;;;;;;;;;;;;14.51;100.00;100590.75;5009582;28;19917;-75
2022/10/23 12:19:47;;;;;;;;;;;;;;;14.53;100.00;100584.44;5012267;28;20163;-75
2022/10/23 12:22:12;;;;;;;;;;;;;;;14.56;100.00;100580.78;5007046;28;19963;-75
2022/10/23 12:24:48;;;;;;;;;;;;;;;14.58;100.00;100582.38;5009808;28;20174;-75
2022/10/23 12:27:17;;;;;;;;;;;;;;;14.62;100.00;100595.38;5011773;28;20308;-75
2022/10/23 12:29:42;;;;;;;;;;;;;;;14.65;100.00;100577.59;5008101;28;20104;-76
2022/10/23 12:32:26;;;;;;;;;;;;;;;14.67;100.00;100567.81;5019324;28;19918;-75
2022/10/23 12:34:52;;;;;;;;;;;;;;;14.71;100.00;100571.09;5014546;28;20116;-75
2022/10/23 12:37:36;;;;;;;;;;;;;;;14.73;100.00;100559.50;5015524;28;19918;-75
2022/10/23 12:40:05;;;;;;;;;;;;;;;14.77;100.00;100554.88;5015479;28;19924;-75
2022/10/23 12:42:30;;;;;;;;;;;;;;;14.79;100.00;100547.75;4992782;28;20291;-76
2022/10/23 12:45:00;;;;;;;;;;;;;;;14.83;100.00;100549.25;5020335;28;19924;-75